Wichita Mid Continent Airport
KICT : now visible

Airfield :











YOU CAN JOIN US ON...

 
LOGIN :

Register | Disclaimer

   EN    FR    IT 

 









Legend :    VFR   Marginal VFR   IFR   Intensive IFR   Very Intensive IFR
Visi :
Ceiling :
>= 8 km
>= 3000ft
5 to 8 km
1000 to 3000 ft
1500m to 5 km
500 to 1000 ft
800 to 1500m
200 to 500 ft
< 800m
< 200 ft
Symbols :   Thunderstorms  Fog  Heavy snow  Heavy precipitations  Wind > 20 kt






- Airport Elevation : 1333 ft
- IATA code : ICT


KICT - Wichita Mid Continent

CURRENT METAR :
  • 271527Z 02011KT 3SM -PL BR SCT012 BKN070 OVC095 M02/M04 A3031 RMK AO2 TWR VIS 4 FZRAE09 PRESFR FZRAB52 P0005 I1001 T10221044

EXPIRED METARs :
  • 271509Z 36009KT 2 1/2SM -PL BR SCT013 BKN060 OVC090 M02/M04 A3034 RMK AO2 FZRAE09 FZRAB52 P0004 I1000 T10221044
  • 271453Z 02010KT 2 1/2SM -FZRAPL BR SCT013 SCT060 OVC080 M02/M04 A3035 RMK AO2 SLP293 FZRAB52 P0012 60020 I1005 I3009 T10221044 50020
  • 271353Z 01007KT 6SM -FZRAPL BR FEW075 OVC095 M03/M05 A3035 RMK AO2 FZRAB52 SLP294 FZRAB52 P0002 I1002 T10281050
  • 271253Z 02011KT 6SM -PL FEW037 BKN060 OVC080 M03/M06 A3033 RMK AO2 SLP285 FZRAB52 P0006 I1002 T10281056

TAF KICT
Valid from the 27 at 12:00 until the 28 at 12:00 UTC


271155Z 2712/2812 02012KT P6SM -FZDZSNPL SCT040 OVC050
TEMPO 2712/2714 02012KT 4SM -FZDZSNPL BR
FM271400 01010KT 4SM -SNPL BR OVC060
FM271600 01009KT 4SM -FZDZPL BR OVC010
FM271800 02007KT P6SM -FZDZPLRA VCSH OVC015
FM280600 VRB03KT P6SM OVC030
KZKC FIR / North America



MET'MAP, your aeronautical weather chart ! - Copyright ORBIFLY December 2007 - Disclaimer

ORBIFLY MET'MAP TEAM :

Programming & Development : Alexandra Zaïnal
Concept & original design : Baudouin d'Aumeries
Assistance for programming : Marc-Olivier Méhu
Technical & hardware support : Manuel Goepfert

Contact : metmap@orbifly.com




SOURCES & CREDITS :

   NOAA       Earth
Advisory